sensor_id;sensor_type;location;lat;lon;timestamp;P1;durP1;ratioP1;P2;durP2;ratioP2
9324;SDS011;4701;51.566;6.776;2023-05-10T07:03:38;43.33;;;28.07;;
9324;SDS011;4701;51.566;6.776;2023-05-10T07:06:39;52.40;;;31.47;;
9324;SDS011;4701;51.566;6.776;2023-05-10T07:09:41;42.67;;;29.23;;
9324;SDS011;4701;51.566;6.776;2023-05-10T07:12:43;48.93;;;30.83;;
9324;SDS011;4701;51.566;6.776;2023-05-10T07:15:45;43.53;;;28.53;;
9324;SDS011;4701;51.566;6.776;2023-05-10T07:18:48;48.93;;;32.07;;
9324;SDS011;4701;51.566;6.776;2023-05-10T07:21:50;52.97;;;33.63;;
9324;SDS011;4701;51.566;6.776;2023-05-10T07:24:52;48.67;;;31.30;;
9324;SDS011;4701;51.566;6.776;2023-05-10T07:27:54;44.87;;;30.70;;
9324;SDS011;4701;51.566;6.776;2023-05-10T07:30:56;45.40;;;30.20;;
9324;SDS011;4701;51.566;6.776;2023-05-10T07:34:00;44.07;;;29.53;;
9324;SDS011;4701;51.566;6.776;2023-05-10T07:37:01;50.00;;;30.77;;
9324;SDS011;4701;51.566;6.776;2023-05-10T07:40:04;53.20;;;32.13;;
9324;SDS011;4701;51.566;6.776;2023-05-10T07:43:06;46.03;;;30.13;;
9324;SDS011;4701;51.566;6.776;2023-05-10T07:46:08;49.87;;;30.37;;
9324;SDS011;4701;51.566;6.776;2023-05-10T07:49:12;42.13;;;27.47;;
9324;SDS011;4701;51.566;6.776;2023-05-10T07:52:17;43.70;;;29.23;;
9324;SDS011;4701;51.566;6.776;2023-05-10T07:55:19;39.93;;;26.23;;
9324;SDS011;4701;51.566;6.776;2023-05-10T07:58:22;40.40;;;25.53;;
9324;SDS011;4701;51.566;6.776;2023-05-10T08:01:24;39.47;;;26.47;;
9324;SDS011;4701;51.566;6.776;2023-05-10T08:04:28;43.87;;;27.13;;
9324;SDS011;4701;51.566;6.776;2023-05-10T08:07:30;41.17;;;24.77;;
9324;SDS011;4701;51.566;6.776;2023-05-10T08:10:32;38.23;;;25.13;;
9324;SDS011;4701;51.566;6.776;2023-05-10T08:13:34;41.50;;;26.40;;
9324;SDS011;4701;51.566;6.776;2023-05-10T08:16:36;45.73;;;26.37;;
9324;SDS011;4701;51.566;6.776;2023-05-10T08:19:39;40.03;;;25.03;;
9324;SDS011;4701;51.566;6.776;2023-05-10T08:22:41;51.63;;;28.50;;
9324;SDS011;4701;51.566;6.776;2023-05-10T08:25:43;43.60;;;27.97;;
9324;SDS011;4701;51.566;6.776;2023-05-10T08:28:44;48.40;;;28.27;;
9324;SDS011;4701;51.566;6.776;2023-05-10T08:31:50;48.00;;;28.57;;
9324;SDS011;4701;51.566;6.776;2023-05-10T08:34:53;44.23;;;25.10;;
9324;SDS011;4701;51.566;6.776;2023-05-10T08:37:56;46.00;;;26.50;;
9324;SDS011;4701;51.566;6.776;2023-05-10T08:40:58;41.57;;;25.10;;
9324;SDS011;4701;51.566;6.776;2023-05-10T08:44:00;37.97;;;23.03;;
9324;SDS011;4701;51.566;6.776;2023-05-10T08:47:05;39.30;;;22.53;;
9324;SDS011;4701;51.566;6.776;2023-05-10T08:50:09;33.67;;;22.40;;
9324;SDS011;4701;51.566;6.776;2023-05-10T08:53:12;38.77;;;22.87;;
9324;SDS011;4701;51.566;6.776;2023-05-10T08:56:15;33.37;;;21.70;;
9324;SDS011;4701;51.566;6.776;2023-05-10T08:59:17;30.87;;;21.70;;
9324;SDS011;4701;51.566;6.776;2023-05-10T09:02:19;35.40;;;22.50;;
9324;SDS011;4701;51.566;6.776;2023-05-10T09:05:23;35.33;;;22.53;;
9324;SDS011;4701;51.566;6.776;2023-05-10T09:08:25;35.53;;;22.43;;
9324;SDS011;4701;51.566;6.776;2023-05-10T09:11:28;33.53;;;21.23;;
9324;SDS011;4701;51.566;6.776;2023-05-10T09:14:30;33.60;;;22.30;;
9324;SDS011;4701;51.566;6.776;2023-05-10T09:17:35;32.50;;;20.93;;
9324;SDS011;4701;51.566;6.776;2023-05-10T09:20:39;35.47;;;22.80;;
9324;SDS011;4701;51.566;6.776;2023-05-10T09:23:42;28.90;;;19.87;;
9324;SDS011;4701;51.566;6.776;2023-05-10T09:26:47;27.63;;;19.47;;
9324;SDS011;4701;51.566;6.776;2023-05-10T09:29:50;32.17;;;21.47;;
9324;SDS011;4701;51.566;6.776;2023-05-10T09:32:54;28.60;;;19.23;;
9324;SDS011;4701;51.566;6.776;2023-05-10T09:36:05;31.30;;;20.97;;
9324;SDS011;4701;51.566;6.776;2023-05-10T09:39:08;33.67;;;20.57;;
9324;SDS011;4701;51.566;6.776;2023-05-10T09:42:10;32.20;;;20.63;;
9324;SDS011;4701;51.566;6.776;2023-05-10T09:45:12;30.93;;;21.03;;
9324;SDS011;4701;51.566;6.776;2023-05-10T09:48:14;32.33;;;20.97;;
9324;SDS011;4701;51.566;6.776;2023-05-10T09:51:20;31.10;;;19.73;;
9324;SDS011;4701;51.566;6.776;2023-05-10T09:54:23;27.20;;;19.27;;
9324;SDS011;4701;51.566;6.776;2023-05-10T09:57:25;28.47;;;19.50;;
9324;SDS011;4701;51.566;6.776;2023-05-10T10:00:27;30.83;;;18.07;;
9324;SDS011;4701;51.566;6.776;2023-05-10T10:03:29;32.83;;;20.97;;
9324;SDS011;4701;51.566;6.776;2023-05-10T10:06:39;26.13;;;18.90;;
9324;SDS011;4701;51.566;6.776;2023-05-10T10:09:41;29.17;;;19.73;;
9324;SDS011;4701;51.566;6.776;2023-05-10T10:12:43;29.13;;;20.07;;
9324;SDS011;4701;51.566;6.776;2023-05-10T10:15:45;29.13;;;19.50;;
9324;SDS011;4701;51.566;6.776;2023-05-10T10:18:51;29.27;;;18.80;;
9324;SDS011;4701;51.566;6.776;2023-05-10T10:21:54;29.30;;;18.80;;
9324;SDS011;4701;51.566;6.776;2023-05-10T10:24:56;26.17;;;16.47;;
9324;SDS011;4701;51.566;6.776;2023-05-10T10:28:05;24.40;;;17.73;;
9324;SDS011;4701;51.566;6.776;2023-05-10T10:31:17;26.17;;;16.20;;
9324;SDS011;4701;51.566;6.776;2023-05-10T10:34:28;22.40;;;16.57;;
9324;SDS011;4701;51.566;6.776;2023-05-10T10:37:45;24.33;;;16.27;;
9324;SDS011;4701;51.566;6.776;2023-05-10T10:40:48;22.07;;;16.87;;
9324;SDS011;4701;51.566;6.776;2023-05-10T10:43:50;23.47;;;17.43;;
9324;SDS011;4701;51.566;6.776;2023-05-10T10:47:24;25.63;;;17.33;;
9324;SDS011;4701;51.566;6.776;2023-05-10T10:50:37;25.43;;;18.83;;
9324;SDS011;4701;51.566;6.776;2023-05-10T10:53:47;26.43;;;19.80;;
9324;SDS011;4701;51.566;6.776;2023-05-10T11:00:22;27.10;;;17.97;;
9324;SDS011;4701;51.566;6.776;2023-05-10T11:03:27;26.63;;;17.63;;
9324;SDS011;4701;51.566;6.776;2023-05-10T11:06:29;26.17;;;18.07;;
9324;SDS011;4701;51.566;6.776;2023-05-10T11:09:36;24.73;;;18.77;;
9324;SDS011;4701;51.566;6.776;2023-05-10T11:12:50;26.57;;;19.07;;
9324;SDS011;4701;51.566;6.776;2023-05-10T11:15:52;24.47;;;18.70;;
9324;SDS011;4701;51.566;6.776;2023-05-10T11:18:58;25.10;;;19.10;;
9324;SDS011;4701;51.566;6.776;2023-05-10T11:22:13;26.77;;;19.33;;
9324;SDS011;4701;51.566;6.776;2023-05-10T11:25:16;35.63;;;21.03;;
9324;SDS011;4701;51.566;6.776;2023-05-10T11:28:18;26.20;;;20.07;;
9324;SDS011;4701;51.566;6.776;2023-05-10T11:31:20;24.40;;;18.07;;
9324;SDS011;4701;51.566;6.776;2023-05-10T11:34:24;28.30;;;20.33;;
9324;SDS011;4701;51.566;6.776;2023-05-10T11:37:28;30.07;;;20.20;;
9324;SDS011;4701;51.566;6.776;2023-05-10T11:40:33;23.10;;;17.33;;
9324;SDS011;4701;51.566;6.776;2023-05-10T11:43:35;30.60;;;21.00;;
9324;SDS011;4701;51.566;6.776;2023-05-10T11:46:38;26.17;;;19.10;;
9324;SDS011;4701;51.566;6.776;2023-05-10T11:49:43;23.47;;;18.40;;
9324;SDS011;4701;51.566;6.776;2023-05-10T11:52:45;25.30;;;19.17;;
9324;SDS011;4701;51.566;6.776;2023-05-10T11:55:48;24.60;;;18.40;;
9324;SDS011;4701;51.566;6.776;2023-05-10T11:58:52;25.20;;;18.30;;
9324;SDS011;4701;51.566;6.776;2023-05-10T12:01:55;19.47;;;16.10;;
9324;SDS011;4701;51.566;6.776;2023-05-10T12:04:57;22.00;;;16.13;;
9324;SDS011;4701;51.566;6.776;2023-05-10T12:08:12;21.37;;;16.77;;
9324;SDS011;4701;51.566;6.776;2023-05-10T12:11:16;16.83;;;14.30;;
9324;SDS011;4701;51.566;6.776;2023-05-10T12:14:18;20.27;;;14.90;;
9324;SDS011;4701;51.566;6.776;2023-05-10T12:17:21;18.93;;;13.83;;
9324;SDS011;4701;51.566;6.776;2023-05-10T12:20:28;18.97;;;13.67;;
9324;SDS011;4701;51.566;6.776;2023-05-10T12:23:30;15.90;;;11.90;;
9324;SDS011;4701;51.566;6.776;2023-05-10T12:26:33;14.67;;;11.33;;
9324;SDS011;4701;51.566;6.776;2023-05-10T12:29:36;13.47;;;11.60;;
9324;SDS011;4701;51.566;6.776;2023-05-10T12:32:44;14.87;;;12.27;;
9324;SDS011;4701;51.566;6.776;2023-05-10T12:35:46;13.67;;;11.13;;
9324;SDS011;4701;51.566;6.776;2023-05-10T12:38:49;16.20;;;11.20;;
9324;SDS011;4701;51.566;6.776;2023-05-10T12:41:54;14.73;;;11.93;;
9324;SDS011;4701;51.566;6.776;2023-05-10T12:44:56;14.30;;;12.03;;
9324;SDS011;4701;51.566;6.776;2023-05-10T12:47:58;15.47;;;11.53;;
9324;SDS011;4701;51.566;6.776;2023-05-10T12:50:59;15.63;;;11.50;;
9324;SDS011;4701;51.566;6.776;2023-05-10T12:54:02;15.50;;;10.90;;
9324;SDS011;4701;51.566;6.776;2023-05-10T12:57:05;13.33;;;10.83;;
9324;SDS011;4701;51.566;6.776;2023-05-10T13:00:07;13.27;;;10.67;;
9324;SDS011;4701;51.566;6.776;2023-05-10T13:03:10;11.83;;;10.10;;
9324;SDS011;4701;51.566;6.776;2023-05-10T13:06:13;13.67;;;11.20;;
9324;SDS011;4701;51.566;6.776;2023-05-10T13:09:15;11.77;;;9.73;;
9324;SDS011;4701;51.566;6.776;2023-05-10T13:12:18;13.60;;;11.33;;
9324;SDS011;4701;51.566;6.776;2023-05-10T13:15:20;12.33;;;10.70;;
9324;SDS011;4701;51.566;6.776;2023-05-10T13:18:22;14.43;;;10.13;;
9324;SDS011;4701;51.566;6.776;2023-05-10T13:21:24;12.80;;;10.47;;
9324;SDS011;4701;51.566;6.776;2023-05-10T13:24:26;13.07;;;10.17;;
9324;SDS011;4701;51.566;6.776;2023-05-10T13:27:30;12.97;;;9.77;;
9324;SDS011;4701;51.566;6.776;2023-05-10T13:30:32;12.33;;;10.60;;
9324;SDS011;4701;51.566;6.776;2023-05-10T13:33:33;12.53;;;10.20;;
9324;SDS011;4701;51.566;6.776;2023-05-10T13:36:35;10.33;;;8.43;;
9324;SDS011;4701;51.566;6.776;2023-05-10T13:39:37;10.87;;;9.60;;
9324;SDS011;4701;51.566;6.776;2023-05-10T13:42:41;11.47;;;9.17;;
9324;SDS011;4701;51.566;6.776;2023-05-10T13:45:46;9.77;;;8.77;;
9324;SDS011;4701;51.566;6.776;2023-05-10T13:48:48;10.50;;;9.40;;
9324;SDS011;4701;51.566;6.776;2023-05-10T13:51:50;12.43;;;8.87;;
9324;SDS011;4701;51.566;6.776;2023-05-10T13:54:52;13.27;;;9.10;;
9324;SDS011;4701;51.566;6.776;2023-05-10T13:57:56;12.87;;;8.40;;
9324;SDS011;4701;51.566;6.776;2023-05-10T14:00:58;10.63;;;9.27;;
9324;SDS011;4701;51.566;6.776;2023-05-10T14:04:00;8.17;;;7.30;;
9324;SDS011;4701;51.566;6.776;2023-05-10T14:07:01;11.73;;;9.10;;
9324;SDS011;4701;51.566;6.776;2023-05-10T14:10:03;9.80;;;8.77;;
9324;SDS011;4701;51.566;6.776;2023-05-10T14:13:07;11.03;;;8.87;;
9324;SDS011;4701;51.566;6.776;2023-05-10T14:16:09;11.70;;;8.37;;
9324;SDS011;4701;51.566;6.776;2023-05-10T14:19:11;9.43;;;7.57;;
9324;SDS011;4701;51.566;6.776;2023-05-10T14:22:13;10.27;;;7.57;;
9324;SDS011;4701;51.566;6.776;2023-05-10T14:25:15;7.23;;;5.83;;
9324;SDS011;4701;51.566;6.776;2023-05-10T14:28:18;7.50;;;6.70;;
9324;SDS011;4701;51.566;6.776;2023-05-10T14:31:21;9.27;;;8.33;;
9324;SDS011;4701;51.566;6.776;2023-05-10T14:34:24;9.10;;;7.20;;
9324;SDS011;4701;51.566;6.776;2023-05-10T14:37:26;9.80;;;8.40;;
9324;SDS011;4701;51.566;6.776;2023-05-10T14:40:28;10.93;;;9.63;;
9324;SDS011;4701;51.566;6.776;2023-05-10T14:43:31;12.17;;;9.93;;
9324;SDS011;4701;51.566;6.776;2023-05-10T14:46:33;12.47;;;10.23;;
9324;SDS011;4701;51.566;6.776;2023-05-10T14:49:35;12.30;;;10.33;;
9324;SDS011;4701;51.566;6.776;2023-05-10T14:52:37;13.20;;;11.87;;
9324;SDS011;4701;51.566;6.776;2023-05-10T14:55:39;13.73;;;10.23;;
9324;SDS011;4701;51.566;6.776;2023-05-10T14:58:42;13.63;;;12.03;;
9324;SDS011;4701;51.566;6.776;2023-05-10T15:01:44;12.40;;;10.53;;
9324;SDS011;4701;51.566;6.776;2023-05-10T15:04:46;13.10;;;10.47;;
9324;SDS011;4701;51.566;6.776;2023-05-10T15:07:48;12.23;;;11.03;;
9324;SDS011;4701;51.566;6.776;2023-05-10T15:10:50;12.17;;;10.97;;
9324;SDS011;4701;51.566;6.776;2023-05-10T15:13:53;11.87;;;10.43;;
9324;SDS011;4701;51.566;6.776;2023-05-10T15:16:55;13.47;;;11.37;;
9324;SDS011;4701;51.566;6.776;2023-05-10T15:19:57;15.60;;;12.17;;
9324;SDS011;4701;51.566;6.776;2023-05-10T15:22:59;12.17;;;10.87;;
9324;SDS011;4701;51.566;6.776;2023-05-10T15:26:01;12.00;;;10.70;;
9324;SDS011;4701;51.566;6.776;2023-05-10T15:29:04;12.70;;;11.03;;
9324;SDS011;4701;51.566;6.776;2023-05-10T15:32:06;10.77;;;9.70;;
9324;SDS011;4701;51.566;6.776;2023-05-10T15:35:08;10.83;;;9.33;;
9324;SDS011;4701;51.566;6.776;2023-05-10T15:38:10;8.20;;;7.27;;
9324;SDS011;4701;51.566;6.776;2023-05-10T15:41:12;7.83;;;7.03;;
9324;SDS011;4701;51.566;6.776;2023-05-10T15:44:15;10.23;;;8.97;;
9324;SDS011;4701;51.566;6.776;2023-05-10T15:47:18;13.00;;;10.03;;
9324;SDS011;4701;51.566;6.776;2023-05-10T15:50:20;11.30;;;8.63;;
9324;SDS011;4701;51.566;6.776;2023-05-10T15:53:22;6.60;;;5.87;;
9324;SDS011;4701;51.566;6.776;2023-05-10T15:56:24;5.90;;;5.20;;
9324;SDS011;4701;51.566;6.776;2023-05-10T15:59:28;7.13;;;5.40;;
9324;SDS011;4701;51.566;6.776;2023-05-10T16:02:30;6.13;;;5.53;;
9324;SDS011;4701;51.566;6.776;2023-05-10T16:05:31;5.90;;;5.17;;
9324;SDS011;4701;51.566;6.776;2023-05-10T16:08:34;5.20;;;4.70;;
9324;SDS011;4701;51.566;6.776;2023-05-10T16:11:36;5.83;;;4.47;;
9324;SDS011;4701;51.566;6.776;2023-05-10T16:14:39;5.53;;;4.70;;
9324;SDS011;4701;51.566;6.776;2023-05-10T16:17:41;5.97;;;4.67;;
9324;SDS011;4701;51.566;6.776;2023-05-10T16:20:43;5.00;;;3.90;;
9324;SDS011;4701;51.566;6.776;2023-05-10T16:23:45;11.10;;;9.80;;
9324;SDS011;4701;51.566;6.776;2023-05-10T16:26:47;5.73;;;5.17;;
9324;SDS011;4701;51.566;6.776;2023-05-10T16:29:50;6.27;;;4.57;;
9324;SDS011;4701;51.566;6.776;2023-05-10T16:32:51;6.73;;;4.10;;
9324;SDS011;4701;51.566;6.776;2023-05-10T16:35:53;5.37;;;4.70;;
9324;SDS011;4701;51.566;6.776;2023-05-10T16:38:55;4.43;;;3.90;;
9324;SDS011;4701;51.566;6.776;2023-05-10T16:41:57;7.53;;;4.63;;
9324;SDS011;4701;51.566;6.776;2023-05-10T16:45:00;5.17;;;4.67;;
9324;SDS011;4701;51.566;6.776;2023-05-10T16:48:06;5.83;;;4.83;;
9324;SDS011;4701;51.566;6.776;2023-05-10T16:51:08;5.30;;;4.70;;
9324;SDS011;4701;51.566;6.776;2023-05-10T16:54:10;6.00;;;4.80;;
9324;SDS011;4701;51.566;6.776;2023-05-10T16:57:12;4.23;;;3.83;;
9324;SDS011;4701;51.566;6.776;2023-05-10T17:00:16;4.40;;;3.47;;
9324;SDS011;4701;51.566;6.776;2023-05-10T17:03:19;3.20;;;2.90;;
9324;SDS011;4701;51.566;6.776;2023-05-10T17:06:21;4.23;;;3.60;;
9324;SDS011;4701;51.566;6.776;2023-05-10T17:09:23;4.63;;;4.10;;
9324;SDS011;4701;51.566;6.776;2023-05-10T17:12:25;5.20;;;4.67;;
9324;SDS011;4701;51.566;6.776;2023-05-10T17:15:28;5.73;;;5.10;;
9324;SDS011;4701;51.566;6.776;2023-05-10T17:18:30;7.93;;;6.40;;
9324;SDS011;4701;51.566;6.776;2023-05-10T17:21:32;6.47;;;5.63;;
9324;SDS011;4701;51.566;6.776;2023-05-10T17:24:34;9.13;;;8.17;;
9324;SDS011;4701;51.566;6.776;2023-05-10T17:27:35;8.93;;;8.00;;
9324;SDS011;4701;51.566;6.776;2023-05-10T17:30:39;9.37;;;7.97;;
9324;SDS011;4701;51.566;6.776;2023-05-10T17:33:41;9.43;;;8.53;;
9324;SDS011;4701;51.566;6.776;2023-05-10T17:36:42;10.93;;;9.07;;
9324;SDS011;4701;51.566;6.776;2023-05-10T17:39:44;10.83;;;9.73;;
9324;SDS011;4701;51.566;6.776;2023-05-10T17:42:46;10.57;;;8.83;;
9324;SDS011;4701;51.566;6.776;2023-05-10T17:45:50;11.87;;;9.77;;
9324;SDS011;4701;51.566;6.776;2023-05-10T17:48:51;9.90;;;8.90;;
9324;SDS011;4701;51.566;6.776;2023-05-10T17:51:53;9.17;;;7.97;;
9324;SDS011;4701;51.566;6.776;2023-05-10T17:54:55;10.83;;;9.03;;
9324;SDS011;4701;51.566;6.776;2023-05-10T17:57:57;11.33;;;9.83;;
9324;SDS011;4701;51.566;6.776;2023-05-10T18:01:00;11.40;;;9.00;;
9324;SDS011;4701;51.566;6.776;2023-05-10T18:04:02;11.67;;;10.47;;
9324;SDS011;4701;51.566;6.776;2023-05-10T18:07:05;8.27;;;7.40;;
9324;SDS011;4701;51.566;6.776;2023-05-10T18:10:07;9.27;;;7.80;;
9324;SDS011;4701;51.566;6.776;2023-05-10T18:13:09;15.03;;;13.53;;
9324;SDS011;4701;51.566;6.776;2023-05-10T18:16:13;20.07;;;17.17;;
9324;SDS011;4701;51.566;6.776;2023-05-10T18:19:14;15.90;;;14.30;;
9324;SDS011;4701;51.566;6.776;2023-05-10T18:22:16;11.17;;;10.07;;
9324;SDS011;4701;51.566;6.776;2023-05-10T18:25:18;11.37;;;9.50;;
9324;SDS011;4701;51.566;6.776;2023-05-10T18:28:20;10.23;;;9.13;;
9324;SDS011;4701;51.566;6.776;2023-05-10T18:31:25;11.53;;;10.43;;
9324;SDS011;4701;51.566;6.776;2023-05-10T18:34:27;11.00;;;9.50;;
9324;SDS011;4701;51.566;6.776;2023-05-10T18:37:29;12.43;;;11.20;;
9324;SDS011;4701;51.566;6.776;2023-05-10T18:40:31;10.87;;;9.77;;
9324;SDS011;4701;51.566;6.776;2023-05-10T18:43:32;8.97;;;8.00;;
9324;SDS011;4701;51.566;6.776;2023-05-10T18:46:36;8.20;;;7.40;;
9324;SDS011;4701;51.566;6.776;2023-05-10T18:49:38;10.23;;;9.23;;
9324;SDS011;4701;51.566;6.776;2023-05-10T18:52:40;12.27;;;9.13;;
9324;SDS011;4701;51.566;6.776;2023-05-10T18:55:42;10.00;;;8.20;;
9324;SDS011;4701;51.566;6.776;2023-05-10T18:58:44;10.70;;;9.07;;
9324;SDS011;4701;51.566;6.776;2023-05-10T19:01:47;12.40;;;11.13;;
9324;SDS011;4701;51.566;6.776;2023-05-10T19:04:49;14.27;;;10.83;;
9324;SDS011;4701;51.566;6.776;2023-05-10T19:07:50;12.93;;;11.53;;
9324;SDS011;4701;51.566;6.776;2023-05-10T19:10:52;11.97;;;10.77;;
9324;SDS011;4701;51.566;6.776;2023-05-10T19:13:54;11.53;;;10.40;;
9324;SDS011;4701;51.566;6.776;2023-05-10T19:16:57;12.07;;;10.43;;
9324;SDS011;4701;51.566;6.776;2023-05-10T19:19:59;10.73;;;9.63;;
9324;SDS011;4701;51.566;6.776;2023-05-10T19:23:01;11.83;;;10.63;;
9324;SDS011;4701;51.566;6.776;2023-05-10T19:26:03;12.00;;;10.80;;
9324;SDS011;4701;51.566;6.776;2023-05-10T19:29:05;10.63;;;9.63;;
9324;SDS011;4701;51.566;6.776;2023-05-10T19:32:08;13.03;;;10.77;;
9324;SDS011;4701;51.566;6.776;2023-05-10T19:35:10;10.03;;;9.03;;
9324;SDS011;4701;51.566;6.776;2023-05-10T19:38:12;11.67;;;10.47;;
9324;SDS011;4701;51.566;6.776;2023-05-10T19:41:14;12.07;;;10.83;;
9324;SDS011;4701;51.566;6.776;2023-05-10T19:44:16;14.47;;;11.97;;
9324;SDS011;4701;51.566;6.776;2023-05-10T19:47:20;12.47;;;10.30;;
9324;SDS011;4701;51.566;6.776;2023-05-10T19:50:22;10.93;;;9.37;;
9324;SDS011;4701;51.566;6.776;2023-05-10T19:53:24;13.13;;;10.03;;
9324;SDS011;4701;51.566;6.776;2023-05-10T19:56:26;9.97;;;9.00;;
9324;SDS011;4701;51.566;6.776;2023-05-10T19:59:28;9.43;;;8.53;;
9324;SDS011;4701;51.566;6.776;2023-05-10T20:02:32;10.33;;;8.77;;
9324;SDS011;4701;51.566;6.776;2023-05-10T20:05:33;11.60;;;10.10;;
9324;SDS011;4701;51.566;6.776;2023-05-10T20:08:35;10.87;;;8.60;;
9324;SDS011;4701;51.566;6.776;2023-05-10T20:11:37;11.07;;;8.83;;
9324;SDS011;4701;51.566;6.776;2023-05-10T20:14:39;10.10;;;8.63;;
9324;SDS011;4701;51.566;6.776;2023-05-10T20:17:42;11.40;;;10.30;;
9324;SDS011;4701;51.566;6.776;2023-05-10T20:20:44;11.10;;;9.07;;
9324;SDS011;4701;51.566;6.776;2023-05-10T20:23:46;9.80;;;8.80;;
9324;SDS011;4701;51.566;6.776;2023-05-10T20:26:48;10.00;;;8.80;;
9324;SDS011;4701;51.566;6.776;2023-05-10T20:29:50;8.93;;;8.00;;
9324;SDS011;4701;51.566;6.776;2023-05-10T20:32:53;8.70;;;7.80;;
9324;SDS011;4701;51.566;6.776;2023-05-10T20:35:55;8.93;;;8.13;;
9324;SDS011;4701;51.566;6.776;2023-05-10T20:38:57;9.47;;;8.40;;
9324;SDS011;4701;51.566;6.776;2023-05-10T20:41:59;11.87;;;9.10;;
9324;SDS011;4701;51.566;6.776;2023-05-10T20:45:01;12.37;;;9.43;;
9324;SDS011;4701;51.566;6.776;2023-05-10T20:48:04;13.10;;;11.60;;
9324;SDS011;4701;51.566;6.776;2023-05-10T20:51:06;12.77;;;10.13;;
9324;SDS011;4701;51.566;6.776;2023-05-10T20:54:08;12.20;;;11.00;;
9324;SDS011;4701;51.566;6.776;2023-05-10T20:57:10;11.70;;;10.20;;
9324;SDS011;4701;51.566;6.776;2023-05-10T21:00:13;11.90;;;10.70;;
